createdAt,value
2024-02-23T00:02:25.953Z,5.55
2024-02-23T00:04:52.577Z,5.50
2024-02-23T00:07:19.056Z,5.05
2024-02-23T00:09:45.542Z,6.47
2024-02-23T00:12:12.249Z,5.60
2024-02-23T00:14:39.228Z,7.57
2024-02-23T00:17:06.007Z,6.22
2024-02-23T00:19:32.885Z,5.20
2024-02-23T00:22:00.572Z,5.05
2024-02-23T00:24:27.553Z,5.25
2024-02-23T00:26:54.233Z,4.45
2024-02-23T00:29:21.125Z,4.70
2024-02-23T00:31:47.903Z,5.57
2024-02-23T00:34:15.198Z,5.03
2024-02-23T00:36:42.641Z,4.05
2024-02-23T00:39:09.600Z,4.53
2024-02-23T00:41:36.836Z,3.65
2024-02-23T00:44:04.505Z,3.97
2024-02-23T00:46:31.359Z,4.10
2024-02-23T00:48:57.968Z,2.72
2024-02-23T00:51:24.611Z,4.00
2024-02-23T00:53:51.145Z,3.17
2024-02-23T00:56:17.648Z,4.47
2024-02-23T00:58:44.272Z,4.40
2024-02-23T01:01:10.915Z,3.42
2024-02-23T01:03:37.572Z,3.83
2024-02-23T01:06:04.484Z,3.08
2024-02-23T01:08:31.117Z,3.83
2024-02-23T01:10:57.689Z,4.07
2024-02-23T01:13:24.276Z,3.42
2024-02-23T01:15:50.883Z,4.07
2024-02-23T01:18:17.613Z,3.20
2024-02-23T01:20:44.258Z,3.00
2024-02-23T01:23:10.761Z,3.40
2024-02-23T01:25:38.529Z,2.97
2024-02-23T01:28:05.471Z,3.33
2024-02-23T01:30:31.961Z,3.92
2024-02-23T01:32:58.673Z,2.30
2024-02-23T01:35:25.332Z,2.97
2024-02-23T01:37:51.914Z,2.47
2024-02-23T01:40:18.477Z,3.85
2024-02-23T01:42:44.985Z,3.72
2024-02-23T01:45:11.501Z,2.63
2024-02-23T01:47:39.070Z,3.35
2024-02-23T01:50:07.736Z,3.45
2024-02-23T01:52:34.351Z,2.67
2024-02-23T01:55:02.032Z,2.10
2024-02-23T01:57:40.338Z,2.70
2024-02-23T02:00:18.919Z,1.80
2024-02-23T02:02:46.036Z,3.65
2024-02-23T02:05:12.738Z,3.47
2024-02-23T02:07:41.635Z,2.28
2024-02-23T02:10:09.933Z,3.55
2024-02-23T02:12:36.928Z,1.95
2024-02-23T02:15:04.674Z,2.42
2024-02-23T02:17:34.124Z,2.33
2024-02-23T02:20:05.614Z,3.75
2024-02-23T02:22:34.481Z,1.85
2024-02-23T02:25:00.956Z,2.50
2024-02-23T02:27:27.750Z,1.70
2024-02-23T02:29:54.280Z,2.40
2024-02-23T02:32:20.839Z,1.85
2024-02-23T02:34:47.456Z,2.03
2024-02-23T02:37:14.072Z,2.17
2024-02-23T02:39:40.678Z,2.35
2024-02-23T02:42:07.519Z,1.60
2024-02-23T02:44:33.996Z,2.50
2024-02-23T02:47:00.563Z,2.42
2024-02-23T02:49:27.117Z,2.65
2024-02-23T02:51:53.708Z,4.15
2024-02-23T02:54:20.208Z,2.90
2024-02-23T02:56:49.054Z,2.55
2024-02-23T02:59:15.571Z,2.67
2024-02-23T03:01:42.085Z,2.03
2024-02-23T03:04:09.325Z,2.63
2024-02-23T03:06:36.032Z,1.60
2024-02-23T03:09:03.405Z,2.45
2024-02-23T03:11:30.001Z,2.03
2024-02-23T03:13:56.605Z,2.90
2024-02-23T03:16:27.219Z,1.50
2024-02-23T03:18:55.373Z,1.63
2024-02-23T03:21:21.847Z,2.05
2024-02-23T03:23:48.317Z,3.53
2024-02-23T03:26:17.193Z,2.33
2024-02-23T03:28:44.325Z,1.83
2024-02-23T03:31:10.820Z,1.60
2024-02-23T03:33:37.610Z,2.05
2024-02-23T03:36:04.920Z,2.13
2024-02-23T03:38:32.878Z,3.58
2024-02-23T03:40:59.732Z,2.63
2024-02-23T03:43:26.245Z,2.78
2024-02-23T03:45:52.819Z,5.13
2024-02-23T03:48:19.534Z,2.33
2024-02-23T03:50:47.198Z,2.45
2024-02-23T03:53:13.819Z,2.13
2024-02-23T03:55:40.314Z,2.63
2024-02-23T03:58:07.391Z,1.70
2024-02-23T04:00:34.022Z,2.00
2024-02-23T04:03:00.578Z,1.55
2024-02-23T04:05:27.224Z,3.70
2024-02-23T04:07:53.832Z,2.10
2024-02-23T04:10:20.887Z,2.05
2024-02-23T04:12:48.421Z,2.15
2024-02-23T04:15:15.007Z,2.47
2024-02-23T04:17:41.804Z,2.78
2024-02-23T04:20:10.996Z,2.22
2024-02-23T04:22:38.454Z,1.88
2024-02-23T04:25:06.191Z,1.60
2024-02-23T04:27:32.919Z,3.65
2024-02-23T04:29:59.496Z,1.98
2024-02-23T04:32:26.145Z,2.60
2024-02-23T04:34:52.696Z,1.75
2024-02-23T04:37:19.269Z,0.90
2024-02-23T04:39:45.848Z,1.55
2024-02-23T04:42:12.398Z,2.45
2024-02-23T04:44:38.987Z,1.27
2024-02-23T04:47:06.038Z,2.00
2024-02-23T04:49:32.617Z,1.10
2024-02-23T04:51:59.370Z,1.70
2024-02-23T04:54:26.114Z,1.75
2024-02-23T04:56:52.590Z,1.15
2024-02-23T04:59:19.217Z,2.03
2024-02-23T05:01:45.691Z,2.65
2024-02-23T05:04:12.163Z,2.13
2024-02-23T05:06:38.779Z,1.23
2024-02-23T05:09:06.744Z,1.25
2024-02-23T05:11:33.333Z,2.17
2024-02-23T05:13:59.918Z,2.25
2024-02-23T05:16:26.441Z,2.10
2024-02-23T05:18:53.405Z,1.27
2024-02-23T05:21:19.932Z,2.25
2024-02-23T05:23:47.535Z,58.80
2024-02-23T05:26:14.272Z,846.95
2024-02-23T05:28:40.845Z,867.40
2024-02-23T05:31:07.380Z,670.03
2024-02-23T05:33:33.857Z,635.97
2024-02-23T05:36:00.338Z,617.00
2024-02-23T05:38:26.899Z,581.50
2024-02-23T05:40:53.414Z,567.22
2024-02-23T05:43:19.936Z,560.53
2024-02-23T05:45:46.600Z,566.08
2024-02-23T05:48:13.204Z,549.05
2024-02-23T05:50:40.027Z,546.75
2024-02-23T05:53:06.927Z,551.42
2024-02-23T05:55:33.498Z,519.65
2024-02-23T05:58:00.219Z,481.42
2024-02-23T06:00:26.805Z,485.20
2024-02-23T06:02:53.279Z,465.98
2024-02-23T06:05:19.831Z,462.45
2024-02-23T06:07:46.426Z,465.70
2024-02-23T06:10:12.986Z,444.25
2024-02-23T06:12:39.684Z,433.45
2024-02-23T06:15:07.277Z,406.02
2024-02-23T06:17:33.803Z,337.20
2024-02-23T06:20:00.779Z,325.08
2024-02-23T06:22:27.374Z,337.77
2024-02-23T06:24:53.930Z,347.67
2024-02-23T06:27:20.453Z,349.23
2024-02-23T06:29:46.904Z,326.27
2024-02-23T06:32:13.430Z,338.33
2024-02-23T06:34:39.911Z,326.80
2024-02-23T06:37:06.611Z,316.92
2024-02-23T06:39:33.258Z,307.73
2024-02-23T06:42:01.779Z,309.13
2024-02-23T06:44:28.400Z,298.85
2024-02-23T06:46:54.971Z,295.23
2024-02-23T06:49:21.626Z,294.80
2024-02-23T06:51:48.110Z,280.92
2024-02-23T06:54:14.952Z,275.00
2024-02-23T06:56:41.410Z,268.15
2024-02-23T06:59:07.964Z,268.70
2024-02-23T07:01:39.186Z,253.70
2024-02-23T07:04:07.497Z,251.93
2024-02-23T07:06:35.304Z,174.35
2024-02-23T07:09:01.824Z,175.32
2024-02-23T07:11:28.868Z,165.65
2024-02-23T07:13:55.401Z,184.60
2024-02-23T07:16:23.153Z,190.00
2024-02-23T07:18:49.722Z,167.30
2024-02-23T07:21:18.963Z,167.27
2024-02-23T07:23:45.551Z,157.27
2024-02-23T07:26:12.043Z,159.93
2024-02-23T07:28:38.565Z,152.85
2024-02-23T07:31:05.190Z,150.52
2024-02-23T07:33:31.755Z,148.38
2024-02-23T07:35:59.858Z,145.15
2024-02-23T07:38:26.397Z,136.07
2024-02-23T07:40:52.970Z,138.38
2024-02-23T07:43:19.736Z,136.02
2024-02-23T07:45:46.248Z,130.68
2024-02-23T07:48:12.902Z,127.70
2024-02-23T07:50:39.648Z,124.15
2024-02-23T07:53:06.331Z,125.20
2024-02-23T07:55:33.902Z,121.60
2024-02-23T07:58:02.856Z,121.50
2024-02-23T08:00:29.622Z,117.78
2024-02-23T08:03:00.272Z,115.82
2024-02-23T08:05:26.865Z,112.22
2024-02-23T08:07:53.590Z,104.90
2024-02-23T08:10:20.265Z,96.10
2024-02-23T08:12:46.808Z,98.60
2024-02-23T08:15:13.403Z,95.80
2024-02-23T08:17:40.018Z,95.25
2024-02-23T08:20:07.184Z,94.25
2024-02-23T08:22:33.696Z,90.20
2024-02-23T08:25:00.241Z,91.93
2024-02-23T08:27:26.924Z,84.95
2024-02-23T08:29:53.391Z,86.68
2024-02-23T08:32:20.117Z,81.72
2024-02-23T08:34:46.797Z,81.18
2024-02-23T08:37:13.401Z,78.03
2024-02-23T08:39:40.103Z,76.40
2024-02-23T08:42:06.533Z,75.53
2024-02-23T08:44:33.143Z,71.43
2024-02-23T08:46:59.683Z,68.30
2024-02-23T08:49:26.302Z,62.90
2024-02-23T08:51:52.798Z,63.33
2024-02-23T08:54:19.714Z,63.30
2024-02-23T08:56:46.330Z,56.78
2024-02-23T08:59:13.246Z,61.25
2024-02-23T09:01:39.734Z,56.92
2024-02-23T09:04:06.332Z,58.08
2024-02-23T09:06:37.761Z,58.47
2024-02-23T09:09:06.254Z,54.33
2024-02-23T09:11:32.827Z,54.75
2024-02-23T09:13:59.427Z,50.20
2024-02-23T09:16:25.892Z,51.92
2024-02-23T09:18:52.413Z,48.78
2024-02-23T09:21:20.083Z,48.42
2024-02-23T09:23:46.837Z,48.55
2024-02-23T09:26:13.534Z,47.50
2024-02-23T09:28:42.602Z,45.80
2024-02-23T09:31:09.218Z,47.47
2024-02-23T09:33:35.830Z,43.13
2024-02-23T09:36:02.405Z,44.88
2024-02-23T09:38:29.499Z,42.17
2024-02-23T09:40:56.135Z,41.40
2024-02-23T09:43:26.110Z,41.28
2024-02-23T09:45:53.951Z,39.50
2024-02-23T09:48:22.293Z,41.55
2024-02-23T09:50:49.373Z,40.90
2024-02-23T09:53:16.520Z,36.92
2024-02-23T09:55:44.574Z,36.85
2024-02-23T09:58:14.040Z,38.53
2024-02-23T10:00:40.880Z,35.53
2024-02-23T10:03:07.635Z,37.95
2024-02-23T10:05:37.021Z,32.88
2024-02-23T10:08:06.148Z,36.33
2024-02-23T10:10:38.611Z,35.97
2024-02-23T10:13:06.212Z,34.45
2024-02-23T10:15:32.752Z,35.55
2024-02-23T10:17:59.994Z,31.20
2024-02-23T10:20:26.736Z,31.75
2024-02-23T10:22:54.998Z,31.42
2024-02-23T10:25:21.984Z,32.03
2024-02-23T10:27:48.505Z,30.55
2024-02-23T10:30:16.512Z,31.33
2024-02-23T10:32:43.548Z,31.05
2024-02-23T10:35:17.450Z,27.88
2024-02-23T10:37:45.884Z,26.00
2024-02-23T10:40:13.737Z,27.10
2024-02-23T10:42:43.009Z,29.70
2024-02-23T10:45:10.047Z,25.20
2024-02-23T10:47:38.064Z,25.38
2024-02-23T10:50:06.005Z,27.50
2024-02-23T10:52:33.141Z,25.88
2024-02-23T10:55:01.488Z,24.42
2024-02-23T10:57:28.460Z,23.90
2024-02-23T10:59:55.671Z,23.38
2024-02-23T11:02:24.938Z,24.05
2024-02-23T11:04:52.117Z,23.05
2024-02-23T11:07:22.257Z,25.05
2024-02-23T11:09:59.223Z,21.67
2024-02-23T11:12:30.969Z,23.30
2024-02-23T11:14:59.889Z,21.08
2024-02-23T11:17:29.231Z,21.00
2024-02-23T11:19:57.151Z,17.27
2024-02-23T11:22:38.431Z,19.35
2024-02-23T11:25:07.700Z,19.70
2024-02-23T11:27:35.128Z,21.20
2024-02-23T11:30:11.277Z,20.63
2024-02-23T11:32:43.142Z,17.77
2024-02-23T11:35:11.935Z,15.88
2024-02-23T11:37:47.476Z,18.25
2024-02-23T11:40:14.786Z,18.05
2024-02-23T11:42:44.328Z,17.75
2024-02-23T11:45:11.905Z,16.17
2024-02-23T11:47:39.705Z,17.42
2024-02-23T11:50:10.873Z,15.65
2024-02-23T11:52:40.438Z,14.73
2024-02-23T11:55:07.980Z,16.42
2024-02-23T11:57:42.864Z,13.82
2024-02-23T12:00:14.615Z,13.10
2024-02-23T12:02:41.460Z,12.20
2024-02-23T12:05:08.795Z,11.60
2024-02-23T12:07:35.984Z,12.90
2024-02-23T12:10:05.320Z,11.00
2024-02-23T12:12:32.082Z,11.95
2024-02-23T12:15:00.250Z,9.30
2024-02-23T12:17:28.357Z,10.65
2024-02-23T12:20:04.052Z,10.02
2024-02-23T12:22:30.761Z,9.32
2024-02-23T12:25:01.035Z,10.45
2024-02-23T12:27:27.990Z,10.00
2024-02-23T12:29:55.522Z,9.80
2024-02-23T12:32:22.812Z,8.43
2024-02-23T12:34:50.009Z,8.75
2024-02-23T12:37:18.228Z,10.00
2024-02-23T12:39:45.311Z,7.75
2024-02-23T12:42:11.885Z,9.23
2024-02-23T12:44:38.492Z,8.00
2024-02-23T12:47:05.445Z,8.13
2024-02-23T12:49:32.229Z,7.90
2024-02-23T12:51:58.710Z,8.30
2024-02-23T12:54:25.191Z,9.98
2024-02-23T12:56:51.661Z,9.63
2024-02-23T12:59:19.100Z,9.15
2024-02-23T13:01:47.228Z,7.68
2024-02-23T13:04:15.262Z,7.57
2024-02-23T13:06:42.129Z,8.52
2024-02-23T13:09:10.177Z,8.35
2024-02-23T13:11:39.512Z,8.85
2024-02-23T13:14:06.113Z,7.10
2024-02-23T13:16:32.757Z,8.93
2024-02-23T13:18:59.246Z,7.40
2024-02-23T13:21:25.849Z,6.55
2024-02-23T13:23:52.336Z,6.93
2024-02-23T13:26:18.827Z,6.30
2024-02-23T13:28:45.623Z,6.00
2024-02-23T13:31:13.051Z,6.57
2024-02-23T13:33:39.816Z,6.93
2024-02-23T13:36:06.860Z,5.97
2024-02-23T13:38:39.163Z,6.60
2024-02-23T13:41:06.954Z,6.63
2024-02-23T13:43:34.745Z,9.80
2024-02-23T13:46:01.632Z,27.23
2024-02-23T13:48:28.369Z,27.05
2024-02-23T13:50:55.058Z,45.58
2024-02-23T13:53:21.768Z,44.42
2024-02-23T13:55:48.984Z,47.28
2024-02-23T13:58:15.643Z,41.45
2024-02-23T14:00:42.326Z,43.63
2024-02-23T14:03:09.514Z,44.80
2024-02-23T14:05:36.420Z,49.35
2024-02-23T14:08:06.690Z,43.20
2024-02-23T14:10:34.647Z,38.55
2024-02-23T14:13:01.717Z,40.40
2024-02-23T14:15:28.356Z,39.03
2024-02-23T14:17:55.013Z,41.35
2024-02-23T14:20:21.626Z,36.45
2024-02-23T14:22:48.454Z,33.47
2024-02-23T14:25:14.994Z,37.45
2024-02-23T14:27:41.570Z,37.40
2024-02-23T14:30:09.595Z,36.00
2024-02-23T14:32:36.531Z,36.30
2024-02-23T14:35:04.970Z,29.80
2024-02-23T14:37:31.716Z,31.00
2024-02-23T14:39:58.212Z,31.15
2024-02-23T14:42:24.759Z,27.67
2024-02-23T14:44:51.342Z,29.58
2024-02-23T14:47:18.487Z,24.92
2024-02-23T14:49:46.901Z,29.70
2024-02-23T14:52:15.601Z,27.77
2024-02-23T14:54:42.476Z,28.05
2024-02-23T14:57:09.047Z,26.05
2024-02-23T14:59:42.627Z,28.02
2024-02-23T15:02:10.541Z,23.88
2024-02-23T15:04:37.079Z,21.20
2024-02-23T15:07:03.761Z,24.33
2024-02-23T15:09:30.297Z,23.83
2024-02-23T15:11:56.918Z,23.33
2024-02-23T15:14:23.492Z,22.85
2024-02-23T15:16:49.976Z,22.10
2024-02-23T15:19:16.619Z,20.05
2024-02-23T15:21:43.677Z,26.35
2024-02-23T15:24:10.661Z,17.35
2024-02-23T15:26:37.325Z,18.45
2024-02-23T15:29:04.522Z,17.70
2024-02-23T15:31:31.757Z,17.30
2024-02-23T15:33:59.380Z,16.45
2024-02-23T15:36:25.976Z,16.70
2024-02-23T15:38:54.083Z,20.33
2024-02-23T15:41:20.718Z,15.77
2024-02-23T15:43:47.194Z,17.70
2024-02-23T15:46:13.681Z,17.30
2024-02-23T15:48:40.344Z,14.48
2024-02-23T15:51:15.545Z,15.38
2024-02-23T15:53:50.829Z,13.63
2024-02-23T15:56:17.447Z,13.82
2024-02-23T15:58:43.939Z,13.48
2024-02-23T16:01:10.632Z,12.93
2024-02-23T16:03:37.176Z,12.95
2024-02-23T16:06:04.078Z,12.93
2024-02-23T16:08:47.578Z,12.38
2024-02-23T16:11:16.217Z,11.02
2024-02-23T16:13:43.305Z,11.05
2024-02-23T16:16:11.749Z,11.38
2024-02-23T16:18:39.231Z,11.50
2024-02-23T16:21:06.013Z,11.77
2024-02-23T16:23:32.612Z,9.63
2024-02-23T16:25:59.205Z,10.80
2024-02-23T16:28:25.762Z,11.57
2024-02-23T16:30:52.259Z,9.40
2024-02-23T16:33:18.939Z,9.15
2024-02-23T16:35:45.633Z,9.10
2024-02-23T16:38:12.385Z,7.90
2024-02-23T16:40:40.401Z,8.23
2024-02-23T16:43:06.869Z,8.95
2024-02-23T16:45:33.488Z,7.93
2024-02-23T16:48:02.268Z,10.50
2024-02-23T16:50:29.061Z,8.38
2024-02-23T16:52:55.708Z,8.65
2024-02-23T16:55:22.741Z,9.27
2024-02-23T16:57:49.228Z,8.52
2024-02-23T17:00:16.136Z,8.98
2024-02-23T17:02:42.652Z,7.90
2024-02-23T17:05:09.460Z,9.05
2024-02-23T17:07:36.762Z,27.55
2024-02-23T17:10:03.350Z,134.40
2024-02-23T17:12:29.889Z,311.17
2024-02-23T17:14:56.403Z,406.45
2024-02-23T17:17:22.954Z,438.83
2024-02-23T17:19:49.525Z,424.52
2024-02-23T17:22:16.268Z,534.25
2024-02-23T17:24:42.802Z,584.90
2024-02-23T17:27:10.001Z,621.25
2024-02-23T17:29:36.600Z,640.67
2024-02-23T17:32:03.217Z,635.80
2024-02-23T17:34:29.730Z,625.08
2024-02-23T17:36:56.173Z,613.22
2024-02-23T17:39:24.460Z,609.88
2024-02-23T17:41:51.059Z,609.17
2024-02-23T17:44:18.980Z,592.03
2024-02-23T17:46:48.920Z,577.90
2024-02-23T17:49:16.391Z,575.30
2024-02-23T17:51:43.446Z,584.13
2024-02-23T17:54:10.043Z,568.65
2024-02-23T17:56:36.694Z,560.45
2024-02-23T17:59:04.207Z,547.97
2024-02-23T18:01:30.966Z,545.38
2024-02-23T18:03:57.605Z,539.53
2024-02-23T18:06:25.023Z,515.78
2024-02-23T18:08:52.206Z,483.92
2024-02-23T18:11:20.972Z,467.73
2024-02-23T18:13:48.478Z,453.25
2024-02-23T18:16:19.334Z,438.30
2024-02-23T18:18:46.844Z,440.98
2024-02-23T18:21:17.401Z,427.65
2024-02-23T18:23:45.018Z,439.42
2024-02-23T18:26:13.573Z,419.98
2024-02-23T18:28:40.173Z,416.63
2024-02-23T18:31:06.649Z,399.52
2024-02-23T18:33:33.344Z,400.17
2024-02-23T18:35:59.856Z,382.13
2024-02-23T18:38:26.561Z,385.75
2024-02-23T18:40:53.068Z,362.13
2024-02-23T18:43:19.562Z,356.40
2024-02-23T18:45:46.062Z,357.10
2024-02-23T18:48:12.652Z,355.63
2024-02-23T18:50:39.421Z,341.40
2024-02-23T18:53:06.542Z,335.33
2024-02-23T18:55:38.567Z,320.92
2024-02-23T18:58:06.851Z,307.88
2024-02-23T19:00:33.427Z,304.42
2024-02-23T19:02:59.981Z,302.83
2024-02-23T19:05:26.808Z,283.75
2024-02-23T19:07:53.328Z,277.55
2024-02-23T19:10:19.919Z,283.65
2024-02-23T19:12:46.688Z,257.15
2024-02-23T19:15:13.484Z,260.63
2024-02-23T19:17:42.061Z,267.42
2024-02-23T19:20:10.667Z,259.73
2024-02-23T19:22:38.650Z,247.55
2024-02-23T19:25:14.044Z,247.82
2024-02-23T19:27:41.213Z,244.27
2024-02-23T19:30:12.212Z,238.45
2024-02-23T19:32:39.058Z,230.23
2024-02-23T19:35:06.010Z,223.75
2024-02-23T19:37:32.828Z,223.88
2024-02-23T19:39:59.363Z,213.85
2024-02-23T19:42:25.897Z,209.65
2024-02-23T19:44:52.386Z,199.10
2024-02-23T19:47:19.053Z,198.18
2024-02-23T19:49:45.647Z,195.82
2024-02-23T19:52:14.849Z,192.50
2024-02-23T19:54:42.442Z,190.00
2024-02-23T19:57:09.011Z,178.10
2024-02-23T19:59:38.110Z,180.98
2024-02-23T20:02:09.758Z,177.18
2024-02-23T20:04:36.470Z,174.70
2024-02-23T20:07:04.460Z,169.32
2024-02-23T20:09:31.561Z,165.20
2024-02-23T20:11:58.258Z,160.95
2024-02-23T20:14:24.973Z,156.25
2024-02-23T20:16:51.518Z,155.85
2024-02-23T20:19:18.084Z,146.00
2024-02-23T20:21:44.664Z,150.82
2024-02-23T20:24:11.281Z,144.60
2024-02-23T20:26:37.959Z,135.25
2024-02-23T20:29:04.538Z,134.85
2024-02-23T20:31:31.042Z,137.77
2024-02-23T20:33:58.785Z,129.60
2024-02-23T20:36:25.533Z,128.73
2024-02-23T20:38:52.219Z,121.85
2024-02-23T20:41:19.912Z,126.47
2024-02-23T20:43:46.412Z,117.72
2024-02-23T20:46:12.916Z,116.32
2024-02-23T20:48:39.574Z,110.65
2024-02-23T20:51:08.866Z,111.32
2024-02-23T20:53:35.517Z,110.57
2024-02-23T20:56:02.238Z,106.55
2024-02-23T20:58:28.852Z,107.80
2024-02-23T21:00:57.176Z,99.00
2024-02-23T21:03:25.888Z,95.68
2024-02-23T21:05:52.420Z,88.85
2024-02-23T21:08:18.990Z,96.40
2024-02-23T21:10:45.661Z,90.32
2024-02-23T21:13:12.136Z,89.65
2024-02-23T21:15:39.308Z,84.82
2024-02-23T21:18:06.307Z,79.47
2024-02-23T21:20:32.955Z,85.05
2024-02-23T21:22:59.494Z,84.18
2024-02-23T21:25:25.996Z,79.00
2024-02-23T21:27:52.514Z,79.50
2024-02-23T21:30:19.043Z,76.63
2024-02-23T21:32:45.616Z,74.45
2024-02-23T21:35:12.179Z,71.75
2024-02-23T21:37:38.712Z,71.15
2024-02-23T21:40:07.039Z,64.70
2024-02-23T21:42:33.672Z,70.93
2024-02-23T21:45:00.170Z,66.95
2024-02-23T21:47:26.744Z,63.17
2024-02-23T21:49:53.310Z,61.55
2024-02-23T21:52:19.770Z,62.22
2024-02-23T21:54:46.399Z,59.70
2024-02-23T21:57:13.073Z,60.60
2024-02-23T21:59:39.620Z,58.35
2024-02-23T22:02:06.897Z,57.20
2024-02-23T22:04:34.708Z,56.35
2024-02-23T22:07:01.291Z,58.85
2024-02-23T22:09:27.791Z,52.15
2024-02-23T22:11:54.689Z,53.88
2024-02-23T22:14:21.297Z,52.33
2024-02-23T22:16:47.821Z,52.40
2024-02-23T22:19:14.397Z,46.63
2024-02-23T22:21:40.911Z,49.53
2024-02-23T22:24:07.687Z,47.17
2024-02-23T22:26:36.658Z,47.40
2024-02-23T22:29:03.517Z,45.33
2024-02-23T22:31:29.973Z,44.30
2024-02-23T22:33:56.747Z,42.80
2024-02-23T22:36:23.407Z,43.50
2024-02-23T22:38:49.991Z,43.30
2024-02-23T22:41:16.601Z,44.08
2024-02-23T22:43:43.116Z,36.08
2024-02-23T22:46:09.691Z,39.85
2024-02-23T22:48:37.061Z,38.13
2024-02-23T22:51:03.644Z,40.63
2024-02-23T22:53:32.093Z,38.25
2024-02-23T22:55:59.988Z,33.55
2024-02-23T22:58:26.514Z,35.88
2024-02-23T23:00:53.004Z,36.92
2024-02-23T23:03:19.536Z,32.63
2024-02-23T23:05:46.172Z,36.67
2024-02-23T23:08:12.878Z,30.45
2024-02-23T23:10:39.527Z,34.17
2024-02-23T23:13:06.005Z,32.17
2024-02-23T23:15:32.461Z,32.08
2024-02-23T23:17:59.088Z,29.65
2024-02-23T23:20:25.798Z,25.98
2024-02-23T23:22:52.315Z,27.35
2024-02-23T23:25:18.814Z,28.40
2024-02-23T23:27:45.267Z,25.20
2024-02-23T23:30:12.582Z,26.42
2024-02-23T23:32:41.285Z,26.38
2024-02-23T23:35:08.375Z,24.98
2024-02-23T23:37:34.866Z,25.02
2024-02-23T23:40:01.439Z,23.27
2024-02-23T23:42:27.881Z,25.00
2024-02-23T23:44:54.476Z,22.58
2024-02-23T23:47:21.064Z,23.23
2024-02-23T23:49:47.560Z,22.95
2024-02-23T23:52:14.653Z,21.42
2024-02-23T23:54:41.175Z,20.02
2024-02-23T23:57:07.662Z,24.00
2024-02-23T23:59:34.102Z,18.02
